Time;durP1;ratioP1;P1;durP2;ratioP2;P2;SDS_P1;SDS_P2;PMS_P1;PMS_P2;Temp;Humidity;BMP_temperature;BMP_pressure;BME280_temperature;BME280_humidity;BME280_pressure;Samples;Min_cycle;Max_cycle;Signal;HPM_P1;HPM_P2
2023/03/05 00:01:08;;;;;;;;;;;3.40;99.90;;;;;;5078085;28;19920;-73
2023/03/05 00:03:34;;;;;;;;;;;3.40;99.90;;;;;;5037559;28;207503;-73
2023/03/05 00:06:00;;;;;;;;;;;3.40;99.90;;;;;;5030762;28;19975;-74
2023/03/05 00:08:27;;;;;;;;;;;3.40;99.90;;;;;;5058234;28;19924;-74
2023/03/05 00:11:04;;;;;;;;;;;3.30;99.90;;;;;;4953785;28;87416;-74
2023/03/05 00:13:30;;;;;;;;;;;3.30;99.90;;;;;;5048021;28;215107;-74
2023/03/05 00:16:01;;;;;;;;;;;3.20;99.90;;;;;;5017476;28;68992;-76
2023/03/05 00:18:27;;;;;;;;;;;3.30;99.90;;;;;;5062539;28;19920;-75
2023/03/05 00:20:53;;;;;;;;;;;3.30;99.90;;;;;;4988232;28;193278;-75
2023/03/05 00:23:19;;;;;;;;;;;3.20;99.90;;;;;;5058114;28;19943;-74
2023/03/05 00:25:45;;;;;;;;;;;3.20;99.90;;;;;;5015860;28;206844;-76
2023/03/05 00:28:13;;;;;;;;;;;3.20;99.90;;;;;;5069578;28;19924;-76
2023/03/05 00:30:39;;;;;;;;;;;3.20;99.90;;;;;;5031059;28;207848;-75
2023/03/05 00:33:06;;;;;;;;;;;3.20;99.90;;;;;;5074482;28;19925;-76
2023/03/05 00:35:37;;;;;;;;;;;3.20;99.90;;;;;;4998325;28;243405;-75
2023/03/05 00:38:03;;;;;;;;;;;3.20;99.90;;;;;;5068302;28;19928;-74
2023/03/05 00:40:29;;;;;;;;;;;3.20;99.90;;;;;;4995384;28;181259;-74
2023/03/05 00:42:55;;;;;;;;;;;3.10;99.90;;;;;;5062253;28;19924;-77
2023/03/05 00:45:24;;;;;;;;;;;3.10;99.90;;;;;;4999403;28;231608;-76
2023/03/05 00:47:50;;;;;;;;;;;3.10;99.90;;;;;;5058088;28;19932;-74
2023/03/05 00:50:16;;;;;;;;;;;3.10;99.90;;;;;;4997497;28;216882;-76
2023/03/05 00:52:41;;;;;;;;;;;3.00;99.90;;;;;;5059645;28;19924;-75
2023/03/05 00:55:08;;;;;;;;;;;3.10;99.90;;;;;;4986624;28;229058;-78
2023/03/05 00:57:34;;;;;;;;;;;3.00;99.90;;;;;;5053991;28;20366;-75
2023/03/05 01:00:00;;;;;;;;;;;3.00;99.90;;;;;;4985216;28;220249;-75
2023/03/05 01:02:26;;;;;;;;;;;3.00;99.90;;;;;;5051837;28;19939;-75
2023/03/05 01:04:52;;;;;;;;;;;3.00;99.90;;;;;;4985149;28;248493;-74
2023/03/05 01:07:18;;;;;;;;;;;3.00;99.90;;;;;;5040586;28;19927;-74
2023/03/05 01:09:44;;;;;;;;;;;3.00;99.90;;;;;;5002358;28;213253;-74
2023/03/05 01:12:10;;;;;;;;;;;3.00;99.90;;;;;;5047827;28;19921;-75
2023/03/05 01:14:36;;;;;;;;;;;3.00;99.90;;;;;;5001820;28;207360;-75
2023/03/05 01:17:02;;;;;;;;;;;3.00;99.90;;;;;;5056384;28;19920;-76
2023/03/05 01:19:28;;;;;;;;;;;3.00;99.90;;;;;;4993769;28;209503;-74
2023/03/05 01:21:54;;;;;;;;;;;3.00;99.90;;;;;;5043729;28;20447;-74
2023/03/05 01:24:20;;;;;;;;;;;3.00;99.90;;;;;;5009978;28;204713;-77
2023/03/05 01:26:46;;;;;;;;;;;3.00;99.90;;;;;;5052365;28;19931;-74
2023/03/05 01:29:12;;;;;;;;;;;3.00;99.90;;;;;;5008774;28;205449;-75
2023/03/05 01:31:38;;;;;;;;;;;3.00;99.90;;;;;;5056338;28;19928;-77
2023/03/05 01:34:04;;;;;;;;;;;3.00;99.90;;;;;;5005073;28;205418;-75
2023/03/05 01:36:30;;;;;;;;;;;3.00;99.90;;;;;;5056400;28;20313;-76
2023/03/05 01:38:56;;;;;;;;;;;3.00;99.90;;;;;;5006666;28;205315;-76
2023/03/05 01:41:23;;;;;;;;;;;3.00;99.90;;;;;;5042327;28;20404;-77
2023/03/05 01:43:51;;;;;;;;;;;3.00;99.90;;;;;;5000649;28;213550;-75
2023/03/05 01:46:28;;;;;;;;;;;3.00;99.90;;;;;;5069281;28;19929;-76
2023/03/05 01:49:00;;;;;;;;;;;3.00;99.90;;;;;;5029520;28;168990;-76
2023/03/05 01:51:28;;;;;;;;;;;2.90;99.90;;;;;;5065308;28;19925;-77
2023/03/05 01:53:56;;;;;;;;;;;2.90;99.90;;;;;;5002986;28;229294;-76
2023/03/05 01:56:22;;;;;;;;;;;2.80;99.90;;;;;;5053440;28;19927;-76
2023/03/05 01:58:50;;;;;;;;;;;2.80;99.90;;;;;;5010634;28;258635;-75
2023/03/05 02:01:15;;;;;;;;;;;2.80;99.90;;;;;;5043593;28;19943;-75
2023/03/05 02:03:41;;;;;;;;;;;2.70;99.90;;;;;;4955859;28;276811;-75
2023/03/05 02:06:07;;;;;;;;;;;2.70;99.90;;;;;;5041920;28;19926;-75
2023/03/05 02:08:33;;;;;;;;;;;2.70;99.90;;;;;;5019293;28;209778;-74
2023/03/05 02:11:00;;;;;;;;;;;2.70;99.90;;;;;;5064756;28;20011;-73
2023/03/05 02:13:28;;;;;;;;;;;2.60;99.90;;;;;;5063201;28;19924;-76
2023/03/05 02:15:56;;;;;;;;;;;2.60;99.90;;;;;;4983608;28;45894;-73
2023/03/05 02:18:23;;;;;;;;;;;2.60;99.90;;;;;;5059612;28;19920;-74
2023/03/05 02:20:50;;;;;;;;;;;2.60;99.90;;;;;;5003449;28;146421;-74
2023/03/05 02:23:17;;;;;;;;;;;2.70;99.90;;;;;;5059766;28;19952;-74
2023/03/05 02:25:44;;;;;;;;;;;2.70;99.90;;;;;;4983037;28;207831;-74
2023/03/05 02:28:16;;;;;;;;;;;2.70;99.90;;;;;;5061646;28;20301;-74
2023/03/05 02:30:42;;;;;;;;;;;2.80;99.90;;;;;;5006497;28;212093;-74
2023/03/05 02:33:08;;;;;;;;;;;2.70;99.90;;;;;;5074790;28;20049;-74
2023/03/05 02:35:34;;;;;;;;;;;2.70;99.90;;;;;;4984494;28;206060;-76
2023/03/05 02:37:59;;;;;;;;;;;2.70;99.90;;;;;;5066626;28;19928;-76
2023/03/05 02:40:25;;;;;;;;;;;2.70;99.90;;;;;;4980244;28;206848;-74
2023/03/05 02:42:52;;;;;;;;;;;2.70;99.90;;;;;;5053373;28;19943;-74
2023/03/05 02:45:18;;;;;;;;;;;2.50;99.90;;;;;;4999981;28;204366;-74
2023/03/05 02:47:44;;;;;;;;;;;2.60;99.90;;;;;;5061728;28;19921;-75
2023/03/05 02:50:10;;;;;;;;;;;2.50;99.90;;;;;;5004110;28;206873;-77
2023/03/05 02:52:37;;;;;;;;;;;2.50;99.90;;;;;;5058087;28;20479;-73
2023/03/05 02:55:03;;;;;;;;;;;2.50;99.90;;;;;;5003701;28;210649;-74
2023/03/05 02:57:29;;;;;;;;;;;2.50;99.90;;;;;;5057625;28;20479;-74
2023/03/05 02:59:55;;;;;;;;;;;2.40;99.90;;;;;;5004161;28;208585;-74
2023/03/05 03:02:21;;;;;;;;;;;2.50;99.90;;;;;;5060897;28;19939;-75
2023/03/05 03:04:47;;;;;;;;;;;2.50;99.90;;;;;;4978183;28;198972;-74
2023/03/05 03:07:13;;;;;;;;;;;2.40;99.90;;;;;;5048602;28;19931;-74
2023/03/05 03:09:39;;;;;;;;;;;2.50;99.90;;;;;;5009824;28;143055;-74
2023/03/05 03:12:05;;;;;;;;;;;2.50;99.90;;;;;;5033964;28;19935;-75
2023/03/05 03:14:38;;;;;;;;;;;2.50;99.90;;;;;;4997066;28;156228;-74
2023/03/05 03:17:08;;;;;;;;;;;2.40;99.90;;;;;;5025911;28;19929;-75
2023/03/05 03:19:35;;;;;;;;;;;2.40;99.90;;;;;;5013693;28;208317;-74
2023/03/05 03:22:01;;;;;;;;;;;2.50;99.90;;;;;;5065923;28;19932;-75
2023/03/05 03:24:28;;;;;;;;;;;2.50;99.90;;;;;;4996298;28;207098;-75
2023/03/05 03:26:54;;;;;;;;;;;2.50;99.90;;;;;;5070581;28;19924;-74
2023/03/05 03:29:20;;;;;;;;;;;2.50;99.90;;;;;;4997049;28;209518;-76
2023/03/05 03:31:47;;;;;;;;;;;2.50;99.90;;;;;;5052968;28;19931;-75
2023/03/05 03:34:14;;;;;;;;;;;2.50;99.90;;;;;;5027113;28;111560;-74
2023/03/05 03:36:41;;;;;;;;;;;2.50;99.90;;;;;;5050368;28;19924;-74
2023/03/05 03:39:08;;;;;;;;;;;2.60;99.90;;;;;;4999418;28;209208;-75
2023/03/05 03:41:35;;;;;;;;;;;2.60;99.90;;;;;;5036013;28;19920;-76
2023/03/05 03:44:07;;;;;;;;;;;2.60;99.90;;;;;;5000553;28;222033;-73
2023/03/05 03:46:33;;;;;;;;;;;2.60;99.90;;;;;;5021787;28;19931;-74
2023/03/05 03:49:00;;;;;;;;;;;2.60;99.90;;;;;;5005070;28;226323;-75
2023/03/05 03:51:29;;;;;;;;;;;2.60;99.90;;;;;;5059074;28;20377;-74
2023/03/05 03:53:55;;;;;;;;;;;2.60;99.90;;;;;;5012097;28;119244;-73
2023/03/05 03:56:21;;;;;;;;;;;2.60;99.90;;;;;;5050626;28;20403;-74
2023/03/05 03:58:53;;;;;;;;;;;2.70;99.90;;;;;;5003376;28;208004;-74
2023/03/05 04:01:19;;;;;;;;;;;2.70;99.90;;;;;;5061276;28;19927;-74
2023/03/05 04:03:45;;;;;;;;;;;2.60;99.90;;;;;;4996022;28;207098;-75
2023/03/05 04:06:11;;;;;;;;;;;2.70;99.90;;;;;;5050989;28;19927;-74
2023/03/05 04:08:37;;;;;;;;;;;2.70;99.90;;;;;;5029054;28;210401;-72
2023/03/05 04:11:04;;;;;;;;;;;2.70;99.90;;;;;;5032527;28;19928;-74
2023/03/05 04:13:30;;;;;;;;;;;2.70;99.90;;;;;;5031001;28;214720;-75
2023/03/05 04:15:56;;;;;;;;;;;2.60;99.90;;;;;;5004264;28;19924;-75
2023/03/05 04:18:22;;;;;;;;;;;2.60;99.90;;;;;;5081154;28;20312;-73
2023/03/05 04:20:51;;;;;;;;;;;2.60;99.90;;;;;;4986435;28;175875;-74
2023/03/05 04:23:17;;;;;;;;;;;2.60;99.90;;;;;;5081052;28;19923;-74
2023/03/05 04:25:43;;;;;;;;;;;2.60;99.90;;;;;;5006883;28;213350;-74
2023/03/05 04:28:09;;;;;;;;;;;2.60;99.90;;;;;;5061493;28;19928;-76
2023/03/05 04:30:35;;;;;;;;;;;2.60;99.90;;;;;;4988317;28;206123;-75
2023/03/05 04:33:01;;;;;;;;;;;2.60;99.90;;;;;;5062415;28;20351;-72
2023/03/05 04:35:26;;;;;;;;;;;2.60;99.90;;;;;;5005726;28;213229;-74
2023/03/05 04:37:52;;;;;;;;;;;2.60;99.90;;;;;;5061970;28;19939;-76
2023/03/05 04:40:18;;;;;;;;;;;2.60;99.90;;;;;;5001504;28;209241;-74
2023/03/05 04:42:44;;;;;;;;;;;2.60;99.90;;;;;;5048119;28;19935;-74
2023/03/05 04:45:10;;;;;;;;;;;2.60;99.90;;;;;;5005712;28;212410;-75
2023/03/05 04:47:37;;;;;;;;;;;2.60;99.90;;;;;;5082242;28;20029;-75
2023/03/05 04:50:03;;;;;;;;;;;2.60;99.90;;;;;;5016909;28;218035;-74
2023/03/05 04:52:29;;;;;;;;;;;2.60;99.90;;;;;;5064263;28;19920;-77
2023/03/05 04:54:55;;;;;;;;;;;2.60;99.90;;;;;;4996913;28;276742;-74
2023/03/05 04:57:27;;;;;;;;;;;2.60;99.90;;;;;;5063300;28;19924;-74
2023/03/05 04:59:53;;;;;;;;;;;2.60;99.90;;;;;;5001378;28;229846;-75
2023/03/05 05:02:19;;;;;;;;;;;2.60;99.90;;;;;;5069186;28;19927;-77
2023/03/05 05:04:44;;;;;;;;;;;2.60;99.90;;;;;;4990659;28;207621;-76
2023/03/05 05:07:11;;;;;;;;;;;2.60;99.90;;;;;;5060027;28;20463;-73
2023/03/05 05:09:38;;;;;;;;;;;2.60;99.90;;;;;;5009251;28;220544;-76
2023/03/05 05:12:04;;;;;;;;;;;2.60;99.90;;;;;;5053725;28;21618;-74
2023/03/05 05:14:30;;;;;;;;;;;2.60;99.90;;;;;;5000170;28;237853;-73
2023/03/05 05:16:56;;;;;;;;;;;2.50;99.90;;;;;;5039888;28;19928;-74
2023/03/05 05:19:22;;;;;;;;;;;2.50;99.90;;;;;;4998289;28;207524;-73
2023/03/05 05:21:48;;;;;;;;;;;2.50;99.90;;;;;;5055235;28;19943;-73
2023/03/05 05:24:14;;;;;;;;;;;2.40;99.90;;;;;;4998518;28;208086;-74
2023/03/05 05:26:40;;;;;;;;;;;2.40;99.90;;;;;;5072420;28;20403;-75
2023/03/05 05:29:06;;;;;;;;;;;2.40;99.90;;;;;;5009371;28;271616;-73
2023/03/05 05:31:32;;;;;;;;;;;2.30;99.90;;;;;;5054326;28;20404;-73
2023/03/05 05:33:58;;;;;;;;;;;2.30;99.90;;;;;;4989217;28;226074;-74
2023/03/05 05:36:24;;;;;;;;;;;2.30;99.90;;;;;;5069579;28;19931;-73
2023/03/05 05:38:50;;;;;;;;;;;2.20;99.90;;;;;;4998881;28;261553;-74
2023/03/05 05:41:17;;;;;;;;;;;2.30;99.90;;;;;;5069401;28;19964;-75
2023/03/05 05:43:43;;;;;;;;;;;2.30;99.90;;;;;;5033037;28;208939;-73
2023/03/05 05:46:13;;;;;;;;;;;2.30;99.90;;;;;;5071036;28;19927;-73
2023/03/05 05:48:39;;;;;;;;;;;2.30;99.90;;;;;;5043576;28;210068;-73
2023/03/05 05:51:10;;;;;;;;;;;2.30;99.90;;;;;;5071161;28;19935;-74
2023/03/05 05:53:39;;;;;;;;;;;2.30;99.90;;;;;;5022073;28;228291;-74
2023/03/05 05:56:06;;;;;;;;;;;2.30;99.90;;;;;;5063171;28;19928;-74
2023/03/05 05:58:32;;;;;;;;;;;2.30;99.90;;;;;;5036207;28;210323;-74
2023/03/05 06:00:58;;;;;;;;;;;2.40;99.90;;;;;;5029466;28;218059;-74
2023/03/05 06:03:24;;;;;;;;;;;2.40;99.90;;;;;;5090582;28;20261;-76
2023/03/05 06:05:50;;;;;;;;;;;2.40;99.90;;;;;;4885406;28;3017871;-74
2023/03/05 06:08:17;;;;;;;;;;;2.40;99.90;;;;;;5090142;28;19930;-74
2023/03/05 06:10:43;;;;;;;;;;;2.40;99.90;;;;;;4982127;28;189633;-75
2023/03/05 06:13:10;;;;;;;;;;;2.40;99.90;;;;;;5091427;28;19935;-74
2023/03/05 06:15:38;;;;;;;;;;;2.40;99.90;;;;;;4991058;28;210272;-77
2023/03/05 06:18:04;;;;;;;;;;;2.40;99.90;;;;;;5059248;28;20389;-75
2023/03/05 06:20:30;;;;;;;;;;;2.30;99.90;;;;;;4976747;28;222435;-73
2023/03/05 06:22:55;;;;;;;;;;;2.30;99.90;;;;;;5066566;28;19921;-74
2023/03/05 06:25:21;;;;;;;;;;;2.30;99.90;;;;;;5001515;28;159563;-75
2023/03/05 06:27:47;;;;;;;;;;;2.30;99.90;;;;;;5064571;28;19920;-75
2023/03/05 06:30:13;;;;;;;;;;;2.30;99.90;;;;;;5022864;28;223009;-74
2023/03/05 06:32:40;;;;;;;;;;;2.30;99.90;;;;;;5066269;28;19942;-76
2023/03/05 06:35:09;;;;;;;;;;;2.20;99.90;;;;;;5006579;28;158647;-76
2023/03/05 06:37:35;;;;;;;;;;;2.30;99.90;;;;;;5073551;28;19927;-74
2023/03/05 06:40:01;;;;;;;;;;;2.20;99.90;;;;;;5010672;28;243962;-73
2023/03/05 06:42:30;;;;;;;;;;;2.20;99.90;;;;;;5055662;28;20285;-74
2023/03/05 06:44:56;;;;;;;;;;;2.30;99.90;;;;;;5002325;28;213620;-74
2023/03/05 06:47:26;;;;;;;;;;;2.20;99.90;;;;;;5080406;28;20387;-75
2023/03/05 06:49:54;;;;;;;;;;;2.30;99.90;;;;;;4989763;28;211020;-74
2023/03/05 06:52:21;;;;;;;;;;;2.30;99.90;;;;;;5055981;28;19924;-77
2023/03/05 06:54:47;;;;;;;;;;;2.30;99.90;;;;;;5004117;28;185826;-73
2023/03/05 06:57:12;;;;;;;;;;;2.30;99.90;;;;;;5066227;28;20385;-75
2023/03/05 06:59:39;;;;;;;;;;;2.30;99.90;;;;;;5007830;28;213636;-73
2023/03/05 07:02:04;;;;;;;;;;;2.40;99.90;;;;;;5069310;28;19920;-74
2023/03/05 07:04:33;;;;;;;;;;;2.40;99.90;;;;;;4988225;28;209073;-75
2023/03/05 07:07:00;;;;;;;;;;;2.40;99.90;;;;;;5055046;28;19928;-74
2023/03/05 07:09:26;;;;;;;;;;;2.40;99.90;;;;;;5008098;28;219464;-75
2023/03/05 07:11:52;;;;;;;;;;;2.50;99.90;;;;;;5060155;28;19925;-74
2023/03/05 07:14:18;;;;;;;;;;;2.50;99.90;;;;;;4968510;28;1151276;-74
2023/03/05 07:16:43;;;;;;;;;;;2.50;99.90;;;;;;5049231;28;19930;-74
2023/03/05 07:19:09;;;;;;;;;;;2.50;99.90;;;;;;5000239;28;108268;-74
2023/03/05 07:21:51;;;;;;;;;;;2.50;99.90;;;;;;5034680;28;19927;-76
2023/03/05 07:24:17;;;;;;;;;;;2.60;99.90;;;;;;5014463;28;212523;-76
2023/03/05 07:26:43;;;;;;;;;;;2.60;99.90;;;;;;5060541;28;20008;-75
2023/03/05 07:29:09;;;;;;;;;;;2.60;99.90;;;;;;4958149;28;1280665;-71
2023/03/05 07:31:35;;;;;;;;;;;2.60;99.90;;;;;;5064384;28;20282;-73
2023/03/05 07:34:02;;;;;;;;;;;2.70;99.90;;;;;;5035348;28;210891;-70
2023/03/05 07:36:29;;;;;;;;;;;2.70;99.90;;;;;;5088522;28;20547;-70
2023/03/05 07:38:55;;;;;;;;;;;2.70;99.90;;;;;;5031457;28;196612;-74
2023/03/05 07:41:33;;;;;;;;;;;2.70;99.90;;;;;;5059990;28;19943;-73
2023/03/05 07:44:01;;;;;;;;;;;2.80;99.90;;;;;;5016017;28;278888;-71
2023/03/05 07:46:28;;;;;;;;;;;2.80;99.90;;;;;;5041040;28;19931;-70
2023/03/05 07:48:55;;;;;;;;;;;2.90;99.90;;;;;;4990000;28;866788;-73
2023/03/05 07:51:24;;;;;;;;;;;2.90;99.90;;;;;;5043320;28;19928;-72
2023/03/05 07:54:06;;;;;;;;;;;3.00;99.90;;;;;;5027365;28;323095;-71
2023/03/05 07:56:41;;;;;;;;;;;3.00;99.90;;;;;;5052741;28;19921;-73
2023/03/05 07:59:09;;;;;;;;;;;3.00;99.90;;;;;;4905889;28;3091716;-72
2023/03/05 08:01:36;;;;;;;;;;;3.10;99.90;;;;;;5069956;28;19925;-72
2023/03/05 08:04:02;;;;;;;;;;;3.20;99.90;;;;;;4989521;28;246605;-71
2023/03/05 08:06:28;;;;;;;;;;;3.20;99.90;;;;;;5066965;28;20476;-72
2023/03/05 08:08:55;;;;;;;;;;;3.30;99.90;;;;;;5015674;28;220568;-71
2023/03/05 08:11:20;;;;;;;;;;;3.30;99.90;;;;;;5082930;28;19939;-72
2023/03/05 08:13:46;;;;;;;;;;;3.40;99.90;;;;;;5014104;28;239072;-72
2023/03/05 08:16:14;;;;;;;;;;;3.50;99.90;;;;;;5063572;28;19924;-72
2023/03/05 08:18:40;;;;;;;;;;;3.60;99.90;;;;;;5021512;28;216064;-72
2023/03/05 08:21:14;;;;;;;;;;;3.60;99.90;;;;;;5036213;28;19936;-72
2023/03/05 08:23:40;;;;;;;;;;;3.60;99.90;;;;;;5012438;28;249294;-73
2023/03/05 08:26:17;;;;;;;;;;;3.70;99.90;;;;;;5050374;28;19931;-72
2023/03/05 08:28:45;;;;;;;;;;;3.80;99.90;;;;;;5015243;28;214295;-71
2023/03/05 08:31:22;;;;;;;;;;;3.90;99.90;;;;;;5067800;28;19931;-72
2023/03/05 08:33:49;;;;;;;;;;;3.90;99.90;;;;;;5009442;28;244135;-71
2023/03/05 08:36:18;;;;;;;;;;;4.00;99.90;;;;;;5079455;28;19924;-71
2023/03/05 08:38:47;;;;;;;;;;;4.00;99.90;;;;;;5021759;28;213725;-73
2023/03/05 08:41:14;;;;;;;;;;;4.00;99.90;;;;;;5070901;28;19939;-71
2023/03/05 08:43:49;;;;;;;;;;;4.00;99.90;;;;;;5009069;28;363175;-72
2023/03/05 08:46:15;;;;;;;;;;;4.00;99.90;;;;;;5080255;28;20604;-72
2023/03/05 08:48:44;;;;;;;;;;;4.10;99.90;;;;;;5008587;28;208888;-68
2023/03/05 08:51:12;;;;;;;;;;;4.20;99.90;;;;;;5040227;28;19920;-73
2023/03/05 08:53:38;;;;;;;;;;;4.20;99.90;;;;;;5013440;28;215957;-73
2023/03/05 08:56:05;;;;;;;;;;;4.30;99.90;;;;;;5036806;28;19927;-71
2023/03/05 08:58:34;;;;;;;;;;;4.40;99.90;;;;;;5037474;28;213095;-72
2023/03/05 09:01:00;;;;;;;;;;;4.50;99.90;;;;;;5043239;28;20059;-72
2023/03/05 09:03:26;;;;;;;;;;;4.70;99.90;;;;;;5051109;28;19924;-73
2023/03/05 09:05:52;;;;;;;;;;;4.70;99.90;;;;;;5010686;28;202736;-72
2023/03/05 09:08:18;;;;;;;;;;;4.80;99.90;;;;;;5098043;28;19939;-75
2023/03/05 09:10:47;;;;;;;;;;;4.90;99.90;;;;;;5009965;28;224409;-75
2023/03/05 09:13:13;;;;;;;;;;;4.90;99.90;;;;;;5077091;28;19920;-75
2023/03/05 09:15:43;;;;;;;;;;;5.00;99.90;;;;;;4993373;28;211139;-74
2023/03/05 09:18:09;;;;;;;;;;;5.10;99.90;;;;;;5052034;28;20540;-76
2023/03/05 09:20:36;;;;;;;;;;;5.20;99.90;;;;;;5013208;28;206825;-74
2023/03/05 09:23:02;;;;;;;;;;;5.20;99.90;;;;;;5058993;28;19936;-75
2023/03/05 09:25:28;;;;;;;;;;;5.20;99.90;;;;;;4989335;28;223789;-75
2023/03/05 09:27:53;;;;;;;;;;;5.20;99.90;;;;;;5061818;28;20331;-75
2023/03/05 09:30:22;;;;;;;;;;;5.30;99.90;;;;;;5017680;28;109860;-74
2023/03/05 09:32:49;;;;;;;;;;;5.30;99.90;;;;;;5049104;28;19924;-75
2023/03/05 09:35:15;;;;;;;;;;;5.30;99.90;;;;;;5000683;28;154050;-74
2023/03/05 09:37:41;;;;;;;;;;;5.40;99.90;;;;;;5065287;28;19935;-74
2023/03/05 09:40:11;;;;;;;;;;;5.60;99.90;;;;;;5004759;28;222670;-75
2023/03/05 09:42:49;;;;;;;;;;;5.70;99.90;;;;;;5065031;28;19963;-74
2023/03/05 09:45:30;;;;;;;;;;;5.90;99.90;;;;;;4999942;28;232472;-74
2023/03/05 09:47:59;;;;;;;;;;;6.10;99.90;;;;;;5059954;28;19936;-73
2023/03/05 09:50:37;;;;;;;;;;;6.10;99.90;;;;;;5013010;28;206630;-74
2023/03/05 09:53:06;;;;;;;;;;;6.10;99.90;;;;;;5060513;28;19925;-73
2023/03/05 09:55:41;;;;;;;;;;;6.10;99.90;;;;;;5003440;28;223935;-74
2023/03/05 09:58:11;;;;;;;;;;;6.20;99.90;;;;;;5089004;28;19927;-74
2023/03/05 10:00:40;;;;;;;;;;;6.30;99.90;;;;;;5002392;28;212134;-74
2023/03/05 10:03:11;;;;;;;;;;;6.30;99.90;;;;;;5066931;28;20373;-74
2023/03/05 10:05:47;;;;;;;;;;;6.30;99.90;;;;;;5001672;28;206110;-72
2023/03/05 10:08:15;;;;;;;;;;;6.00;99.90;;;;;;5064346;28;20385;-74
2023/03/05 10:10:48;;;;;;;;;;;5.70;99.90;;;;;;5002324;28;208328;-74
2023/03/05 10:13:23;;;;;;;;;;;5.70;99.90;;;;;;5088146;28;19924;-76
2023/03/05 10:16:07;;;;;;;;;;;5.70;99.90;;;;;;5000783;28;237577;-74
2023/03/05 10:18:42;;;;;;;;;;;5.70;99.90;;;;;;5042095;28;207490;-74
2023/03/05 10:21:12;;;;;;;;;;;5.90;99.90;;;;;;5035926;28;19935;-74
2023/03/05 10:23:44;;;;;;;;;;;6.10;99.90;;;;;;4989860;28;235568;-76
2023/03/05 10:26:13;;;;;;;;;;;6.20;99.90;;;;;;5071700;28;20401;-74
2023/03/05 10:28:39;;;;;;;;;;;6.20;99.90;;;;;;5023680;28;208432;-75
2023/03/05 10:31:05;;;;;;;;;;;6.10;99.90;;;;;;5083359;28;19927;-77
2023/03/05 10:33:39;;;;;;;;;;;6.00;99.90;;;;;;5065702;28;225835;-77
2023/03/05 10:36:23;;;;;;;;;;;5.80;99.90;;;;;;4997182;28;20051;-77
2023/03/05 10:39:10;;;;;;;;;;;5.70;99.90;;;;;;5032667;28;206957;-75
2023/03/05 10:41:47;;;;;;;;;;;5.70;99.90;;;;;;5056056;28;19935;-75
2023/03/05 10:44:14;;;;;;;;;;;5.90;99.90;;;;;;4992829;28;231874;-75
2023/03/05 10:46:40;;;;;;;;;;;6.20;99.90;;;;;;5064189;28;19924;-77
2023/03/05 10:49:24;;;;;;;;;;;6.70;99.90;;;;;;5022973;28;232457;-76
2023/03/05 10:51:53;;;;;;;;;;;7.40;99.90;;;;;;5048442;28;20474;-75
2023/03/05 10:54:24;;;;;;;;;;;8.10;99.90;;;;;;5021338;28;254623;-76
2023/03/05 10:57:00;;;;;;;;;;;8.80;99.90;;;;;;5065106;28;20293;-74
2023/03/05 10:59:28;;;;;;;;;;;9.50;99.90;;;;;;4992075;28;218928;-74
2023/03/05 11:02:03;;;;;;;;;;;9.50;99.90;;;;;;5069293;28;20412;-74
2023/03/05 11:04:34;;;;;;;;;;;9.80;99.90;;;;;;4964773;28;280201;-72
2023/03/05 11:07:05;;;;;;;;;;;9.30;99.90;;;;;;5068395;28;19924;-74
2023/03/05 11:09:31;;;;;;;;;;;9.40;99.90;;;;;;5015756;28;209426;-74
2023/03/05 11:12:04;;;;;;;;;;;9.50;99.90;;;;;;5055127;28;19920;-73
2023/03/05 11:14:32;;;;;;;;;;;9.00;99.90;;;;;;5013471;28;240167;-74
2023/03/05 11:16:59;;;;;;;;;;;8.50;99.90;;;;;;5064378;28;19939;-74
2023/03/05 11:19:28;;;;;;;;;;;8.90;99.90;;;;;;5018178;28;254663;-74
2023/03/05 11:22:03;;;;;;;;;;;9.20;99.90;;;;;;5071705;28;20006;-74
2023/03/05 11:24:29;;;;;;;;;;;9.10;99.90;;;;;;5021460;28;237509;-75
2023/03/05 11:26:56;;;;;;;;;;;9.30;99.90;;;;;;5056504;28;19964;-75
2023/03/05 11:29:27;;;;;;;;;;;9.70;99.90;;;;;;5028043;28;210938;-75
2023/03/05 11:31:53;;;;;;;;;;;9.50;99.60;;;;;;5080177;28;19953;-75
2023/03/05 11:34:19;;;;;;;;;;;9.20;99.90;;;;;;5024648;28;240707;-75
2023/03/05 11:36:48;;;;;;;;;;;9.70;99.90;;;;;;5042821;28;20293;-75
2023/03/05 11:39:15;;;;;;;;;;;9.60;99.90;;;;;;5022952;28;211411;-75
2023/03/05 11:41:50;;;;;;;;;;;9.20;99.90;;;;;;5049316;28;19927;-74
2023/03/05 11:44:20;;;;;;;;;;;8.70;99.90;;;;;;5014630;28;162270;-75
2023/03/05 11:46:49;;;;;;;;;;;8.50;99.90;;;;;;5080551;28;20658;-75
2023/03/05 11:49:18;;;;;;;;;;;8.30;99.90;;;;;;4918880;28;3001928;-74
2023/03/05 11:51:51;;;;;;;;;;;9.00;99.90;;;;;;5072570;28;19995;-74
2023/03/05 11:54:21;;;;;;;;;;;9.50;98.90;;;;;;5016281;28;210018;-75
2023/03/05 11:56:48;;;;;;;;;;;10.40;98.00;;;;;;5064786;28;19942;-75
2023/03/05 11:59:34;;;;;;;;;;;10.70;97.30;;;;;;4996333;28;234747;-75
2023/03/05 12:02:00;;;;;;;;;;;10.70;96.70;;;;;;5077144;28;19932;-76
2023/03/05 12:04:26;;;;;;;;;;;10.50;98.30;;;;;;5001604;28;190450;-76
2023/03/05 12:06:57;;;;;;;;;;;10.10;98.40;;;;;;5064917;28;19929;-75
2023/03/05 12:09:23;;;;;;;;;;;9.60;98.80;;;;;;5003399;28;222821;-75
2023/03/05 12:11:52;;;;;;;;;;;9.00;99.40;;;;;;5046269;28;19925;-74
2023/03/05 12:14:22;;;;;;;;;;;8.70;99.60;;;;;;5013590;28;219620;-76
2023/03/05 12:17:05;;;;;;;;;;;9.00;99.90;;;;;;5074028;28;19925;-75
2023/03/05 12:19:44;;;;;;;;;;;9.30;99.90;;;;;;4999989;28;239054;-75
2023/03/05 12:22:23;;;;;;;;;;;9.10;99.90;;;;;;5057550;28;20040;-75
2023/03/05 12:24:50;;;;;;;;;;;8.70;99.90;;;;;;5001198;28;206870;-74
2023/03/05 12:27:30;;;;;;;;;;;8.90;99.40;;;;;;5063345;28;19920;-75
2023/03/05 12:30:00;;;;;;;;;;;8.80;99.90;;;;;;5000779;28;246927;-75
2023/03/05 12:32:33;;;;;;;;;;;8.80;99.70;;;;;;5086568;28;20412;-75
2023/03/05 12:35:03;;;;;;;;;;;8.80;99.90;;;;;;4994265;28;207374;-73
2023/03/05 12:37:30;;;;;;;;;;;8.60;99.90;;;;;;5061839;28;19920;-72
2023/03/05 12:40:16;;;;;;;;;;;8.10;99.90;;;;;;5020186;28;206941;-73
2023/03/05 12:42:55;;;;;;;;;;;7.80;99.90;;;;;;5047266;28;19935;-72
2023/03/05 12:45:22;;;;;;;;;;;7.60;99.90;;;;;;5022685;28;223036;-72
2023/03/05 12:47:54;;;;;;;;;;;7.50;99.90;;;;;;5065488;28;19936;-70
2023/03/05 12:50:26;;;;;;;;;;;7.60;99.90;;;;;;5010478;28;206823;-71
2023/03/05 12:52:52;;;;;;;;;;;7.60;99.90;;;;;;5084352;28;19932;-72
2023/03/05 12:55:19;;;;;;;;;;;7.50;99.90;;;;;;5025741;28;208382;-71
2023/03/05 12:57:45;;;;;;;;;;;7.60;99.90;;;;;;5079000;28;19928;-73
2023/03/05 13:00:20;;;;;;;;;;;7.90;99.90;;;;;;5010548;28;249595;-72
2023/03/05 13:02:49;;;;;;;;;;;7.90;99.70;;;;;;5080038;28;19931;-72
2023/03/05 13:05:20;;;;;;;;;;;7.80;99.90;;;;;;4988862;28;221434;-72
2023/03/05 13:07:47;;;;;;;;;;;7.80;99.90;;;;;;5075685;28;20433;-72
2023/03/05 13:10:20;;;;;;;;;;;7.90;99.90;;;;;;5000421;28;280956;-72
2023/03/05 13:12:54;;;;;;;;;;;8.00;99.90;;;;;;5060919;28;19924;-73
2023/03/05 13:15:24;;;;;;;;;;;8.20;99.90;;;;;;5020911;28;208070;-71
2023/03/05 13:17:56;;;;;;;;;;;8.80;99.30;;;;;;5079124;28;19943;-72
2023/03/05 13:20:22;;;;;;;;;;;9.10;98.40;;;;;;5010887;28;207115;-72
2023/03/05 13:23:01;;;;;;;;;;;8.90;97.90;;;;;;5058357;28;19928;-72
2023/03/05 13:25:27;;;;;;;;;;;8.40;98.60;;;;;;4980016;28;206415;-71
2023/03/05 13:28:00;;;;;;;;;;;7.80;99.90;;;;;;5045171;28;19924;-71
2023/03/05 13:30:27;;;;;;;;;;;7.40;99.90;;;;;;4987538;28;213173;-70
2023/03/05 13:33:04;;;;;;;;;;;7.20;99.90;;;;;;5045090;28;19924;-71
2023/03/05 13:35:31;;;;;;;;;;;6.90;99.90;;;;;;4983985;28;207380;-72
2023/03/05 13:37:57;;;;;;;;;;;6.60;99.90;;;;;;5043240;28;19925;-72
2023/03/05 13:40:26;;;;;;;;;;;6.60;99.90;;;;;;5007091;28;237134;-72
2023/03/05 13:42:53;;;;;;;;;;;6.80;99.90;;;;;;5059451;28;19928;-73
2023/03/05 13:45:38;;;;;;;;;;;6.90;99.90;;;;;;4994862;28;207340;-72
2023/03/05 13:48:05;;;;;;;;;;;7.00;99.90;;;;;;5061061;28;19921;-72
2023/03/05 13:50:35;;;;;;;;;;;7.30;99.90;;;;;;4992751;28;184711;-73
2023/03/05 13:53:33;;;;;;;;;;;7.20;99.90;;;;;;5077794;28;19931;-73
2023/03/05 13:56:04;;;;;;;;;;;7.20;99.90;;;;;;4961864;28;174047;-72
2023/03/05 13:58:48;;;;;;;;;;;7.30;99.90;;;;;;5061802;28;244225;-71
2023/03/05 14:01:19;;;;;;;;;;;7.20;99.90;;;;;;5005655;28;19924;-70
2023/03/05 14:03:48;;;;;;;;;;;7.20;99.90;;;;;;4999812;28;71320;-71
2023/03/05 14:06:16;;;;;;;;;;;7.10;99.90;;;;;;5038680;28;19928;-72
2023/03/05 14:08:47;;;;;;;;;;;6.90;99.90;;;;;;5003322;28;218372;-71
2023/03/05 14:11:15;;;;;;;;;;;6.90;99.90;;;;;;5072158;28;19932;-72
2023/03/05 14:13:41;;;;;;;;;;;7.00;99.90;;;;;;5028317;28;206824;-72
2023/03/05 14:16:08;;;;;;;;;;;7.00;99.90;;;;;;4997365;28;20274;-73
2023/03/05 14:18:35;;;;;;;;;;;7.00;99.90;;;;;;5018459;28;209508;-73
2023/03/05 14:21:01;;;;;;;;;;;7.10;99.90;;;;;;5032731;28;19920;-72
2023/03/05 14:23:33;;;;;;;;;;;7.30;99.90;;;;;;5072415;28;207984;-72
2023/03/05 14:26:18;;;;;;;;;;;8.10;99.90;;;;;;5004971;28;104601;-73
2023/03/05 14:28:49;;;;;;;;;;;8.80;99.90;;;;;;5001770;28;239440;-72
2023/03/05 14:31:16;;;;;;;;;;;9.50;99.60;;;;;;5052518;28;19925;-72